sensor_id;sensor_type;location;lat;lon;timestamp;P1;durP1;ratioP1;P2;durP2;ratioP2
49460;SDS011;35355;49.198;-0.368;2023-07-20T00:00:25;10.32;;;3.20;;
49460;SDS011;35355;49.198;-0.368;2023-07-20T00:02:51;3.67;;;1.35;;
49460;SDS011;35355;49.198;-0.368;2023-07-20T00:05:17;8.63;;;1.48;;
49460;SDS011;35355;49.198;-0.368;2023-07-20T00:07:46;11.13;;;2.40;;
49460;SDS011;35355;49.198;-0.368;2023-07-20T00:10:12;5.28;;;1.63;;
49460;SDS011;35355;49.198;-0.368;2023-07-20T00:12:38;9.90;;;2.03;;
49460;SDS011;35355;49.198;-0.368;2023-07-20T00:15:03;6.88;;;1.73;;
49460;SDS011;35355;49.198;-0.368;2023-07-20T00:17:29;10.23;;;2.28;;
49460;SDS011;35355;49.198;-0.368;2023-07-20T00:19:55;5.95;;;2.42;;
49460;SDS011;35355;49.198;-0.368;2023-07-20T00:22:20;9.73;;;2.42;;
49460;SDS011;35355;49.198;-0.368;2023-07-20T00:24:45;6.03;;;2.10;;
49460;SDS011;35355;49.198;-0.368;2023-07-20T00:27:11;7.88;;;2.10;;
49460;SDS011;35355;49.198;-0.368;2023-07-20T00:29:36;7.68;;;2.13;;
49460;SDS011;35355;49.198;-0.368;2023-07-20T00:32:01;5.00;;;1.60;;
49460;SDS011;35355;49.198;-0.368;2023-07-20T00:34:29;5.47;;;1.90;;
49460;SDS011;35355;49.198;-0.368;2023-07-20T00:36:55;6.78;;;2.65;;
49460;SDS011;35355;49.198;-0.368;2023-07-20T00:39:20;6.55;;;1.60;;
49460;SDS011;35355;49.198;-0.368;2023-07-20T00:41:46;10.77;;;1.88;;
49460;SDS011;35355;49.198;-0.368;2023-07-20T00:44:11;9.88;;;2.10;;
49460;SDS011;35355;49.198;-0.368;2023-07-20T00:46:37;8.43;;;2.10;;
49460;SDS011;35355;49.198;-0.368;2023-07-20T00:49:02;13.00;;;2.28;;
49460;SDS011;35355;49.198;-0.368;2023-07-20T00:51:28;9.65;;;2.13;;
49460;SDS011;35355;49.198;-0.368;2023-07-20T00:53:54;4.47;;;1.55;;
49460;SDS011;35355;49.198;-0.368;2023-07-20T00:56:20;4.43;;;1.52;;
49460;SDS011;35355;49.198;-0.368;2023-07-20T00:58:47;6.00;;;2.22;;
49460;SDS011;35355;49.198;-0.368;2023-07-20T01:01:12;4.13;;;1.70;;
49460;SDS011;35355;49.198;-0.368;2023-07-20T01:03:38;7.18;;;2.08;;
49460;SDS011;35355;49.198;-0.368;2023-07-20T01:11:36;8.63;;;2.00;;
49460;SDS011;35355;49.198;-0.368;2023-07-20T01:14:11;8.52;;;2.42;;
49460;SDS011;35355;49.198;-0.368;2023-07-20T01:16:37;7.38;;;2.38;;
49460;SDS011;35355;49.198;-0.368;2023-07-20T01:19:02;7.43;;;2.22;;
49460;SDS011;35355;49.198;-0.368;2023-07-20T01:21:31;6.15;;;2.40;;
49460;SDS011;35355;49.198;-0.368;2023-07-20T01:24:11;7.78;;;3.05;;
49460;SDS011;35355;49.198;-0.368;2023-07-20T01:29:50;9.55;;;2.58;;
49460;SDS011;35355;49.198;-0.368;2023-07-20T01:32:28;8.88;;;2.45;;
49460;SDS011;35355;49.198;-0.368;2023-07-20T01:34:56;8.30;;;2.40;;
49460;SDS011;35355;49.198;-0.368;2023-07-20T01:37:23;7.97;;;2.30;;
49460;SDS011;35355;49.198;-0.368;2023-07-20T01:39:51;6.22;;;2.72;;
49460;SDS011;35355;49.198;-0.368;2023-07-20T01:42:20;8.60;;;2.42;;
49460;SDS011;35355;49.198;-0.368;2023-07-20T01:44:47;5.10;;;1.80;;
49460;SDS011;35355;49.198;-0.368;2023-07-20T01:47:12;6.72;;;2.40;;
49460;SDS011;35355;49.198;-0.368;2023-07-20T01:49:37;8.57;;;1.88;;
49460;SDS011;35355;49.198;-0.368;2023-07-20T01:52:03;10.45;;;1.75;;
49460;SDS011;35355;49.198;-0.368;2023-07-20T01:54:28;7.28;;;2.25;;
49460;SDS011;35355;49.198;-0.368;2023-07-20T01:56:54;7.78;;;2.25;;
49460;SDS011;35355;49.198;-0.368;2023-07-20T01:59:20;3.78;;;1.75;;
49460;SDS011;35355;49.198;-0.368;2023-07-20T02:01:45;8.55;;;2.25;;
49460;SDS011;35355;49.198;-0.368;2023-07-20T02:04:10;6.15;;;2.30;;
49460;SDS011;35355;49.198;-0.368;2023-07-20T02:06:36;5.72;;;2.83;;
49460;SDS011;35355;49.198;-0.368;2023-07-20T02:09:01;6.90;;;2.55;;
49460;SDS011;35355;49.198;-0.368;2023-07-20T02:11:26;10.52;;;2.58;;
49460;SDS011;35355;49.198;-0.368;2023-07-20T02:13:52;12.00;;;2.40;;
49460;SDS011;35355;49.198;-0.368;2023-07-20T02:16:17;8.00;;;2.70;;
49460;SDS011;35355;49.198;-0.368;2023-07-20T02:18:43;6.88;;;1.95;;
49460;SDS011;35355;49.198;-0.368;2023-07-20T02:21:08;4.47;;;2.40;;
49460;SDS011;35355;49.198;-0.368;2023-07-20T02:23:33;4.80;;;2.17;;
49460;SDS011;35355;49.198;-0.368;2023-07-20T02:25:59;8.45;;;2.08;;
49460;SDS011;35355;49.198;-0.368;2023-07-20T02:28:24;5.43;;;2.00;;
49460;SDS011;35355;49.198;-0.368;2023-07-20T02:30:49;8.68;;;2.28;;
49460;SDS011;35355;49.198;-0.368;2023-07-20T02:33:15;9.00;;;2.30;;
49460;SDS011;35355;49.198;-0.368;2023-07-20T02:35:40;6.18;;;1.92;;
49460;SDS011;35355;49.198;-0.368;2023-07-20T02:38:05;6.07;;;2.15;;
49460;SDS011;35355;49.198;-0.368;2023-07-20T02:40:32;6.50;;;2.30;;
49460;SDS011;35355;49.198;-0.368;2023-07-20T02:42:57;6.65;;;2.00;;
49460;SDS011;35355;49.198;-0.368;2023-07-20T02:45:22;6.07;;;2.30;;
49460;SDS011;35355;49.198;-0.368;2023-07-20T02:47:48;7.57;;;2.22;;
49460;SDS011;35355;49.198;-0.368;2023-07-20T02:50:14;10.95;;;2.45;;
49460;SDS011;35355;49.198;-0.368;2023-07-20T02:52:39;4.30;;;2.33;;
49460;SDS011;35355;49.198;-0.368;2023-07-20T02:55:05;3.70;;;2.15;;
49460;SDS011;35355;49.198;-0.368;2023-07-20T02:57:30;4.20;;;2.05;;
49460;SDS011;35355;49.198;-0.368;2023-07-20T02:59:55;5.50;;;1.88;;
49460;SDS011;35355;49.198;-0.368;2023-07-20T03:02:21;6.68;;;3.08;;
49460;SDS011;35355;49.198;-0.368;2023-07-20T03:04:46;6.78;;;2.17;;
49460;SDS011;35355;49.198;-0.368;2023-07-20T03:07:12;7.28;;;1.90;;
49460;SDS011;35355;49.198;-0.368;2023-07-20T03:09:37;8.18;;;2.38;;
49460;SDS011;35355;49.198;-0.368;2023-07-20T03:12:03;6.45;;;2.40;;
49460;SDS011;35355;49.198;-0.368;2023-07-20T03:14:30;5.18;;;1.95;;
49460;SDS011;35355;49.198;-0.368;2023-07-20T03:16:55;6.68;;;1.75;;
49460;SDS011;35355;49.198;-0.368;2023-07-20T03:19:20;5.40;;;2.08;;
49460;SDS011;35355;49.198;-0.368;2023-07-20T03:21:46;7.75;;;2.42;;
49460;SDS011;35355;49.198;-0.368;2023-07-20T03:24:11;5.82;;;2.40;;
49460;SDS011;35355;49.198;-0.368;2023-07-20T03:26:36;6.32;;;2.67;;
49460;SDS011;35355;49.198;-0.368;2023-07-20T03:29:04;7.97;;;2.78;;
49460;SDS011;35355;49.198;-0.368;2023-07-20T03:31:30;5.07;;;2.10;;
49460;SDS011;35355;49.198;-0.368;2023-07-20T03:33:55;6.53;;;3.05;;
49460;SDS011;35355;49.198;-0.368;2023-07-20T03:36:21;9.10;;;2.50;;
49460;SDS011;35355;49.198;-0.368;2023-07-20T03:38:47;6.22;;;2.80;;
49460;SDS011;35355;49.198;-0.368;2023-07-20T03:41:12;5.68;;;2.58;;
49460;SDS011;35355;49.198;-0.368;2023-07-20T03:43:38;7.43;;;1.92;;
49460;SDS011;35355;49.198;-0.368;2023-07-20T03:46:03;6.25;;;2.65;;
49460;SDS011;35355;49.198;-0.368;2023-07-20T03:48:32;4.35;;;2.42;;
49460;SDS011;35355;49.198;-0.368;2023-07-20T03:50:58;9.00;;;3.00;;
49460;SDS011;35355;49.198;-0.368;2023-07-20T03:53:23;10.35;;;2.78;;
49460;SDS011;35355;49.198;-0.368;2023-07-20T03:55:49;10.45;;;2.38;;
49460;SDS011;35355;49.198;-0.368;2023-07-20T03:58:16;6.47;;;2.40;;
49460;SDS011;35355;49.198;-0.368;2023-07-20T04:00:45;4.80;;;2.30;;
49460;SDS011;35355;49.198;-0.368;2023-07-20T04:03:11;7.45;;;2.45;;
49460;SDS011;35355;49.198;-0.368;2023-07-20T04:05:38;10.95;;;2.75;;
49460;SDS011;35355;49.198;-0.368;2023-07-20T04:08:03;5.32;;;2.67;;
49460;SDS011;35355;49.198;-0.368;2023-07-20T04:10:29;8.35;;;2.25;;
49460;SDS011;35355;49.198;-0.368;2023-07-20T04:12:54;4.47;;;2.13;;
49460;SDS011;35355;49.198;-0.368;2023-07-20T04:15:20;11.00;;;3.58;;
49460;SDS011;35355;49.198;-0.368;2023-07-20T04:17:45;6.15;;;2.67;;
49460;SDS011;35355;49.198;-0.368;2023-07-20T04:20:11;7.75;;;2.63;;
49460;SDS011;35355;49.198;-0.368;2023-07-20T04:22:36;6.25;;;2.63;;
49460;SDS011;35355;49.198;-0.368;2023-07-20T04:25:02;9.57;;;2.30;;
49460;SDS011;35355;49.198;-0.368;2023-07-20T04:27:28;6.68;;;2.65;;
49460;SDS011;35355;49.198;-0.368;2023-07-20T04:29:54;6.43;;;2.13;;
49460;SDS011;35355;49.198;-0.368;2023-07-20T04:32:19;7.55;;;2.78;;
49460;SDS011;35355;49.198;-0.368;2023-07-20T04:34:45;4.07;;;2.10;;
49460;SDS011;35355;49.198;-0.368;2023-07-20T04:37:10;7.65;;;2.28;;
49460;SDS011;35355;49.198;-0.368;2023-07-20T04:39:36;6.45;;;2.17;;
49460;SDS011;35355;49.198;-0.368;2023-07-20T04:42:01;7.25;;;3.40;;
49460;SDS011;35355;49.198;-0.368;2023-07-20T04:44:26;7.18;;;2.63;;
49460;SDS011;35355;49.198;-0.368;2023-07-20T04:46:52;3.63;;;2.15;;
49460;SDS011;35355;49.198;-0.368;2023-07-20T04:49:17;6.90;;;1.92;;
49460;SDS011;35355;49.198;-0.368;2023-07-20T04:51:42;7.40;;;2.33;;
49460;SDS011;35355;49.198;-0.368;2023-07-20T04:54:08;6.68;;;2.42;;
49460;SDS011;35355;49.198;-0.368;2023-07-20T04:56:33;7.05;;;2.25;;
49460;SDS011;35355;49.198;-0.368;2023-07-20T04:58:59;4.85;;;2.28;;
49460;SDS011;35355;49.198;-0.368;2023-07-20T05:01:24;6.00;;;2.50;;
49460;SDS011;35355;49.198;-0.368;2023-07-20T05:03:51;6.38;;;3.08;;
49460;SDS011;35355;49.198;-0.368;2023-07-20T05:06:17;12.45;;;3.42;;
49460;SDS011;35355;49.198;-0.368;2023-07-20T05:08:43;6.78;;;2.55;;
49460;SDS011;35355;49.198;-0.368;2023-07-20T05:11:09;6.60;;;2.67;;
49460;SDS011;35355;49.198;-0.368;2023-07-20T05:13:34;4.78;;;2.60;;
49460;SDS011;35355;49.198;-0.368;2023-07-20T05:16:00;6.35;;;2.70;;
49460;SDS011;35355;49.198;-0.368;2023-07-20T05:18:25;4.60;;;2.40;;
49460;SDS011;35355;49.198;-0.368;2023-07-20T05:20:51;8.07;;;2.72;;
49460;SDS011;35355;49.198;-0.368;2023-07-20T05:23:17;7.75;;;3.08;;
49460;SDS011;35355;49.198;-0.368;2023-07-20T05:25:44;7.32;;;2.67;;
49460;SDS011;35355;49.198;-0.368;2023-07-20T05:28:10;7.25;;;3.13;;
49460;SDS011;35355;49.198;-0.368;2023-07-20T05:30:36;6.60;;;3.10;;
49460;SDS011;35355;49.198;-0.368;2023-07-20T05:33:01;5.68;;;2.63;;
49460;SDS011;35355;49.198;-0.368;2023-07-20T05:35:27;13.48;;;3.35;;
49460;SDS011;35355;49.198;-0.368;2023-07-20T05:37:52;9.80;;;3.42;;
49460;SDS011;35355;49.198;-0.368;2023-07-20T05:40:17;10.75;;;3.80;;
49460;SDS011;35355;49.198;-0.368;2023-07-20T05:42:47;8.20;;;3.75;;
49460;SDS011;35355;49.198;-0.368;2023-07-20T05:45:16;9.88;;;3.75;;
49460;SDS011;35355;49.198;-0.368;2023-07-20T05:47:42;8.45;;;3.92;;
49460;SDS011;35355;49.198;-0.368;2023-07-20T05:50:08;9.57;;;4.03;;
49460;SDS011;35355;49.198;-0.368;2023-07-20T05:52:34;8.68;;;4.00;;
49460;SDS011;35355;49.198;-0.368;2023-07-20T05:54:59;4.15;;;3.20;;
49460;SDS011;35355;49.198;-0.368;2023-07-20T05:57:25;7.93;;;3.35;;
49460;SDS011;35355;49.198;-0.368;2023-07-20T05:59:50;6.10;;;3.30;;
49460;SDS011;35355;49.198;-0.368;2023-07-20T06:02:16;8.35;;;3.47;;
49460;SDS011;35355;49.198;-0.368;2023-07-20T06:04:42;9.63;;;4.32;;
49460;SDS011;35355;49.198;-0.368;2023-07-20T06:07:07;6.60;;;3.22;;
49460;SDS011;35355;49.198;-0.368;2023-07-20T06:09:33;7.68;;;4.20;;
49460;SDS011;35355;49.198;-0.368;2023-07-20T06:11:59;9.82;;;4.43;;
49460;SDS011;35355;49.198;-0.368;2023-07-20T06:14:24;10.23;;;3.90;;
49460;SDS011;35355;49.198;-0.368;2023-07-20T06:16:50;7.28;;;3.85;;
49460;SDS011;35355;49.198;-0.368;2023-07-20T06:19:15;8.30;;;3.65;;
49460;SDS011;35355;49.198;-0.368;2023-07-20T06:21:41;7.93;;;4.07;;
49460;SDS011;35355;49.198;-0.368;2023-07-20T06:24:07;10.65;;;3.42;;
49460;SDS011;35355;49.198;-0.368;2023-07-20T06:26:32;8.82;;;3.50;;
49460;SDS011;35355;49.198;-0.368;2023-07-20T06:29:03;7.75;;;3.17;;
49460;SDS011;35355;49.198;-0.368;2023-07-20T06:31:30;7.85;;;4.03;;
49460;SDS011;35355;49.198;-0.368;2023-07-20T06:33:56;5.30;;;3.22;;
49460;SDS011;35355;49.198;-0.368;2023-07-20T06:36:22;12.48;;;4.03;;
49460;SDS011;35355;49.198;-0.368;2023-07-20T06:38:48;6.80;;;3.15;;
49460;SDS011;35355;49.198;-0.368;2023-07-20T06:41:13;8.43;;;3.67;;
49460;SDS011;35355;49.198;-0.368;2023-07-20T06:43:38;6.75;;;3.08;;
49460;SDS011;35355;49.198;-0.368;2023-07-20T06:46:04;8.00;;;3.25;;
49460;SDS011;35355;49.198;-0.368;2023-07-20T06:48:29;7.88;;;3.53;;
49460;SDS011;35355;49.198;-0.368;2023-07-20T06:50:55;6.57;;;2.47;;
49460;SDS011;35355;49.198;-0.368;2023-07-20T06:53:20;6.43;;;3.42;;
49460;SDS011;35355;49.198;-0.368;2023-07-20T06:55:45;9.32;;;3.03;;
49460;SDS011;35355;49.198;-0.368;2023-07-20T06:58:11;10.52;;;3.75;;
49460;SDS011;35355;49.198;-0.368;2023-07-20T07:00:36;15.65;;;3.15;;
49460;SDS011;35355;49.198;-0.368;2023-07-20T07:03:02;8.73;;;2.97;;
49460;SDS011;35355;49.198;-0.368;2023-07-20T07:05:27;11.70;;;2.85;;
49460;SDS011;35355;49.198;-0.368;2023-07-20T07:07:53;8.02;;;2.70;;
49460;SDS011;35355;49.198;-0.368;2023-07-20T07:10:19;7.50;;;3.25;;
49460;SDS011;35355;49.198;-0.368;2023-07-20T07:12:44;6.38;;;2.03;;
49460;SDS011;35355;49.198;-0.368;2023-07-20T07:15:09;6.32;;;2.63;;
49460;SDS011;35355;49.198;-0.368;2023-07-20T07:17:35;5.50;;;2.15;;
49460;SDS011;35355;49.198;-0.368;2023-07-20T07:20:01;6.10;;;2.10;;
49460;SDS011;35355;49.198;-0.368;2023-07-20T07:22:27;6.38;;;2.15;;
49460;SDS011;35355;49.198;-0.368;2023-07-20T07:24:52;3.70;;;2.10;;
49460;SDS011;35355;49.198;-0.368;2023-07-20T07:27:19;6.40;;;2.00;;
49460;SDS011;35355;49.198;-0.368;2023-07-20T07:29:44;5.80;;;2.33;;
49460;SDS011;35355;49.198;-0.368;2023-07-20T07:32:10;6.80;;;1.98;;
49460;SDS011;35355;49.198;-0.368;2023-07-20T07:34:36;5.88;;;1.95;;
49460;SDS011;35355;49.198;-0.368;2023-07-20T07:37:01;6.63;;;1.20;;
49460;SDS011;35355;49.198;-0.368;2023-07-20T07:39:27;11.75;;;1.80;;
49460;SDS011;35355;49.198;-0.368;2023-07-20T07:41:54;5.15;;;1.95;;
49460;SDS011;35355;49.198;-0.368;2023-07-20T07:44:20;4.57;;;1.38;;
49460;SDS011;35355;49.198;-0.368;2023-07-20T07:46:46;5.30;;;1.83;;
49460;SDS011;35355;49.198;-0.368;2023-07-20T07:49:11;6.82;;;1.90;;
49460;SDS011;35355;49.198;-0.368;2023-07-20T07:51:37;3.17;;;1.42;;
49460;SDS011;35355;49.198;-0.368;2023-07-20T07:54:03;3.58;;;1.35;;
49460;SDS011;35355;49.198;-0.368;2023-07-20T07:56:28;3.85;;;1.40;;
49460;SDS011;35355;49.198;-0.368;2023-07-20T07:58:54;4.63;;;1.55;;
49460;SDS011;35355;49.198;-0.368;2023-07-20T08:01:19;5.53;;;1.60;;
49460;SDS011;35355;49.198;-0.368;2023-07-20T08:03:45;6.03;;;1.88;;
49460;SDS011;35355;49.198;-0.368;2023-07-20T08:06:15;1.77;;;1.00;;
49460;SDS011;35355;49.198;-0.368;2023-07-20T08:08:41;5.18;;;1.23;;
49460;SDS011;35355;49.198;-0.368;2023-07-20T08:11:10;7.50;;;1.75;;
49460;SDS011;35355;49.198;-0.368;2023-07-20T08:13:36;3.45;;;1.58;;
49460;SDS011;35355;49.198;-0.368;2023-07-20T08:16:01;3.42;;;0.80;;
49460;SDS011;35355;49.198;-0.368;2023-07-20T08:18:30;7.53;;;1.27;;
49460;SDS011;35355;49.198;-0.368;2023-07-20T08:20:56;4.82;;;1.20;;
49460;SDS011;35355;49.198;-0.368;2023-07-20T08:23:21;6.45;;;0.70;;
49460;SDS011;35355;49.198;-0.368;2023-07-20T08:25:47;4.95;;;1.10;;
49460;SDS011;35355;49.198;-0.368;2023-07-20T08:28:13;5.05;;;1.00;;
49460;SDS011;35355;49.198;-0.368;2023-07-20T08:30:44;2.78;;;0.98;;
49460;SDS011;35355;49.198;-0.368;2023-07-20T08:33:12;4.20;;;0.90;;
49460;SDS011;35355;49.198;-0.368;2023-07-20T08:35:38;3.53;;;1.10;;
49460;SDS011;35355;49.198;-0.368;2023-07-20T08:38:04;5.10;;;1.17;;
49460;SDS011;35355;49.198;-0.368;2023-07-20T08:40:30;1.75;;;0.73;;
49460;SDS011;35355;49.198;-0.368;2023-07-20T08:42:59;2.03;;;0.65;;
49460;SDS011;35355;49.198;-0.368;2023-07-20T08:45:28;5.07;;;0.80;;
49460;SDS011;35355;49.198;-0.368;2023-07-20T08:47:55;2.63;;;0.50;;
49460;SDS011;35355;49.198;-0.368;2023-07-20T08:50:23;4.25;;;0.80;;
49460;SDS011;35355;49.198;-0.368;2023-07-20T08:52:52;4.72;;;0.63;;
49460;SDS011;35355;49.198;-0.368;2023-07-20T08:55:19;4.38;;;0.82;;
49460;SDS011;35355;49.198;-0.368;2023-07-20T08:57:46;4.75;;;0.40;;
49460;SDS011;35355;49.198;-0.368;2023-07-20T09:00:15;4.63;;;0.50;;
49460;SDS011;35355;49.198;-0.368;2023-07-20T09:02:42;2.58;;;0.85;;
49460;SDS011;35355;49.198;-0.368;2023-07-20T09:05:11;3.78;;;0.85;;
49460;SDS011;35355;49.198;-0.368;2023-07-20T09:07:39;3.08;;;0.52;;
49460;SDS011;35355;49.198;-0.368;2023-07-20T09:10:05;5.88;;;0.70;;
49460;SDS011;35355;49.198;-0.368;2023-07-20T09:12:34;4.22;;;0.60;;
49460;SDS011;35355;49.198;-0.368;2023-07-20T09:15:00;1.75;;;0.50;;
49460;SDS011;35355;49.198;-0.368;2023-07-20T09:17:26;4.85;;;0.65;;
49460;SDS011;35355;49.198;-0.368;2023-07-20T09:19:52;2.90;;;0.50;;
49460;SDS011;35355;49.198;-0.368;2023-07-20T09:22:19;1.13;;;0.47;;
49460;SDS011;35355;49.198;-0.368;2023-07-20T09:24:44;4.22;;;0.82;;
49460;SDS011;35355;49.198;-0.368;2023-07-20T09:27:10;1.63;;;0.60;;
49460;SDS011;35355;49.198;-0.368;2023-07-20T09:29:49;1.67;;;0.30;;
49460;SDS011;35355;49.198;-0.368;2023-07-20T09:32:17;1.48;;;0.40;;
49460;SDS011;35355;49.198;-0.368;2023-07-20T09:34:44;2.88;;;0.40;;
49460;SDS011;35355;49.198;-0.368;2023-07-20T09:37:10;2.53;;;0.40;;
49460;SDS011;35355;49.198;-0.368;2023-07-20T09:39:45;1.92;;;0.47;;
49460;SDS011;35355;49.198;-0.368;2023-07-20T09:42:14;2.17;;;0.30;;
49460;SDS011;35355;49.198;-0.368;2023-07-20T09:44:44;7.03;;;0.40;;
49460;SDS011;35355;49.198;-0.368;2023-07-20T09:47:10;4.00;;;0.40;;
49460;SDS011;35355;49.198;-0.368;2023-07-20T09:49:41;2.00;;;0.35;;
49460;SDS011;35355;49.198;-0.368;2023-07-20T09:52:08;1.25;;;0.50;;
49460;SDS011;35355;49.198;-0.368;2023-07-20T09:54:34;1.20;;;0.30;;
49460;SDS011;35355;49.198;-0.368;2023-07-20T09:57:03;1.40;;;0.60;;
49460;SDS011;35355;49.198;-0.368;2023-07-20T09:59:31;1.90;;;0.40;;
49460;SDS011;35355;49.198;-0.368;2023-07-20T10:01:58;1.10;;;0.50;;
49460;SDS011;35355;49.198;-0.368;2023-07-20T10:04:26;5.57;;;0.63;;
49460;SDS011;35355;49.198;-0.368;2023-07-20T10:06:53;2.35;;;0.40;;
49460;SDS011;35355;49.198;-0.368;2023-07-20T10:09:21;0.85;;;0.40;;
49460;SDS011;35355;49.198;-0.368;2023-07-20T10:11:52;1.95;;;0.50;;
49460;SDS011;35355;49.198;-0.368;2023-07-20T10:14:19;1.45;;;0.50;;
49460;SDS011;35355;49.198;-0.368;2023-07-20T10:16:55;3.50;;;0.40;;
49460;SDS011;35355;49.198;-0.368;2023-07-20T10:22:14;2.28;;;0.38;;
49460;SDS011;35355;49.198;-0.368;2023-07-20T10:24:44;0.85;;;0.38;;
49460;SDS011;35355;49.198;-0.368;2023-07-20T10:27:10;1.67;;;0.65;;
49460;SDS011;35355;49.198;-0.368;2023-07-20T10:29:36;2.30;;;0.50;;
49460;SDS011;35355;49.198;-0.368;2023-07-20T10:32:02;2.65;;;0.70;;
49460;SDS011;35355;49.198;-0.368;2023-07-20T10:34:29;3.33;;;0.68;;
49460;SDS011;35355;49.198;-0.368;2023-07-20T10:36:55;4.95;;;1.00;;
49460;SDS011;35355;49.198;-0.368;2023-07-20T10:42:02;5.97;;;0.70;;
49460;SDS011;35355;49.198;-0.368;2023-07-20T10:44:37;3.05;;;0.90;;
49460;SDS011;35355;49.198;-0.368;2023-07-20T10:47:08;2.33;;;0.70;;
49460;SDS011;35355;49.198;-0.368;2023-07-20T10:49:34;3.20;;;0.60;;
49460;SDS011;35355;49.198;-0.368;2023-07-20T10:52:03;3.83;;;0.90;;
49460;SDS011;35355;49.198;-0.368;2023-07-20T11:00:10;5.15;;;0.65;;
49460;SDS011;35355;49.198;-0.368;2023-07-20T11:02:42;1.83;;;0.43;;
49460;SDS011;35355;49.198;-0.368;2023-07-20T11:08:14;1.98;;;0.30;;
49460;SDS011;35355;49.198;-0.368;2023-07-20T11:13:59;1.10;;;0.43;;
49460;SDS011;35355;49.198;-0.368;2023-07-20T11:19:02;6.55;;;0.60;;
49460;SDS011;35355;49.198;-0.368;2023-07-20T11:21:34;1.55;;;0.30;;
49460;SDS011;35355;49.198;-0.368;2023-07-20T11:24:02;2.05;;;0.43;;
49460;SDS011;35355;49.198;-0.368;2023-07-20T11:26:29;1.00;;;0.52;;
49460;SDS011;35355;49.198;-0.368;2023-07-20T11:28:54;3.55;;;0.55;;
49460;SDS011;35355;49.198;-0.368;2023-07-20T11:31:20;1.08;;;0.40;;
49460;SDS011;35355;49.198;-0.368;2023-07-20T11:33:46;2.50;;;0.45;;
49460;SDS011;35355;49.198;-0.368;2023-07-20T11:36:11;3.67;;;0.40;;
49460;SDS011;35355;49.198;-0.368;2023-07-20T11:38:40;3.00;;;0.40;;
49460;SDS011;35355;49.198;-0.368;2023-07-20T11:41:08;1.90;;;0.47;;
49460;SDS011;35355;49.198;-0.368;2023-07-20T11:43:33;5.07;;;0.40;;
49460;SDS011;35355;49.198;-0.368;2023-07-20T11:45:59;2.88;;;0.30;;
49460;SDS011;35355;49.198;-0.368;2023-07-20T11:48:25;0.85;;;0.30;;
49460;SDS011;35355;49.198;-0.368;2023-07-20T11:50:51;1.42;;;0.32;;
49460;SDS011;35355;49.198;-0.368;2023-07-20T11:53:16;1.67;;;0.45;;
49460;SDS011;35355;49.198;-0.368;2023-07-20T11:55:42;1.20;;;0.30;;
49460;SDS011;35355;49.198;-0.368;2023-07-20T11:58:09;4.20;;;0.40;;
49460;SDS011;35355;49.198;-0.368;2023-07-20T12:00:35;1.13;;;0.30;;
49460;SDS011;35355;49.198;-0.368;2023-07-20T12:03:05;2.65;;;0.43;;
49460;SDS011;35355;49.198;-0.368;2023-07-20T12:05:35;1.27;;;0.35;;
49460;SDS011;35355;49.198;-0.368;2023-07-20T12:08:03;2.67;;;0.40;;
49460;SDS011;35355;49.198;-0.368;2023-07-20T12:10:29;2.60;;;0.35;;
49460;SDS011;35355;49.198;-0.368;2023-07-20T12:12:55;5.25;;;0.30;;
49460;SDS011;35355;49.198;-0.368;2023-07-20T12:15:28;0.63;;;0.20;;
49460;SDS011;35355;49.198;-0.368;2023-07-20T12:17:55;0.85;;;0.30;;
49460;SDS011;35355;49.198;-0.368;2023-07-20T12:22:51;1.73;;;0.22;;
49460;SDS011;35355;49.198;-0.368;2023-07-20T12:25:17;2.80;;;0.45;;
49460;SDS011;35355;49.198;-0.368;2023-07-20T12:27:45;2.10;;;0.30;;
49460;SDS011;35355;49.198;-0.368;2023-07-20T12:30:12;1.70;;;0.40;;
49460;SDS011;35355;49.198;-0.368;2023-07-20T12:32:38;1.35;;;0.30;;
49460;SDS011;35355;49.198;-0.368;2023-07-20T12:35:04;1.23;;;0.30;;
49460;SDS011;35355;49.198;-0.368;2023-07-20T12:37:31;1.23;;;0.25;;
49460;SDS011;35355;49.198;-0.368;2023-07-20T12:39:56;0.93;;;0.30;;
49460;SDS011;35355;49.198;-0.368;2023-07-20T12:42:22;1.48;;;0.63;;
49460;SDS011;35355;49.198;-0.368;2023-07-20T12:44:48;1.05;;;0.30;;
49460;SDS011;35355;49.198;-0.368;2023-07-20T12:47:15;0.77;;;0.25;;
49460;SDS011;35355;49.198;-0.368;2023-07-20T12:49:42;0.85;;;0.35;;
49460;SDS011;35355;49.198;-0.368;2023-07-20T12:52:10;1.83;;;0.30;;
49460;SDS011;35355;49.198;-0.368;2023-07-20T12:54:36;1.33;;;0.40;;
49460;SDS011;35355;49.198;-0.368;2023-07-20T12:57:01;3.08;;;1.20;;
49460;SDS011;35355;49.198;-0.368;2023-07-20T12:59:28;0.80;;;0.20;;
49460;SDS011;35355;49.198;-0.368;2023-07-20T13:01:54;1.25;;;0.30;;
49460;SDS011;35355;49.198;-0.368;2023-07-20T13:04:19;5.35;;;0.47;;
49460;SDS011;35355;49.198;-0.368;2023-07-20T13:06:45;0.52;;;0.30;;
49460;SDS011;35355;49.198;-0.368;2023-07-20T13:09:10;0.55;;;0.20;;
49460;SDS011;35355;49.198;-0.368;2023-07-20T13:11:35;2.92;;;0.43;;
49460;SDS011;35355;49.198;-0.368;2023-07-20T13:14:01;0.75;;;0.40;;
49460;SDS011;35355;49.198;-0.368;2023-07-20T13:16:26;2.65;;;0.40;;
49460;SDS011;35355;49.198;-0.368;2023-07-20T13:18:52;1.40;;;0.35;;
49460;SDS011;35355;49.198;-0.368;2023-07-20T13:21:18;3.80;;;0.30;;
49460;SDS011;35355;49.198;-0.368;2023-07-20T13:23:47;2.70;;;0.55;;
49460;SDS011;35355;49.198;-0.368;2023-07-20T13:26:13;2.65;;;0.43;;
49460;SDS011;35355;49.198;-0.368;2023-07-20T13:28:40;5.97;;;0.60;;
49460;SDS011;35355;49.198;-0.368;2023-07-20T13:31:05;0.85;;;0.20;;
49460;SDS011;35355;49.198;-0.368;2023-07-20T13:33:30;0.88;;;0.22;;
49460;SDS011;35355;49.198;-0.368;2023-07-20T13:35:56;2.65;;;0.38;;
49460;SDS011;35355;49.198;-0.368;2023-07-20T13:38:21;0.60;;;0.30;;
49460;SDS011;35355;49.198;-0.368;2023-07-20T13:40:47;0.88;;;0.20;;
49460;SDS011;35355;49.198;-0.368;2023-07-20T13:43:12;3.65;;;0.38;;
49460;SDS011;35355;49.198;-0.368;2023-07-20T13:45:38;1.05;;;0.30;;
49460;SDS011;35355;49.198;-0.368;2023-07-20T13:48:03;1.75;;;0.43;;
49460;SDS011;35355;49.198;-0.368;2023-07-20T13:50:29;2.47;;;0.45;;
49460;SDS011;35355;49.198;-0.368;2023-07-20T13:52:54;1.05;;;0.30;;
49460;SDS011;35355;49.198;-0.368;2023-07-20T13:55:20;3.22;;;0.40;;
49460;SDS011;35355;49.198;-0.368;2023-07-20T13:57:45;2.42;;;0.40;;
49460;SDS011;35355;49.198;-0.368;2023-07-20T14:00:12;2.47;;;0.50;;
49460;SDS011;35355;49.198;-0.368;2023-07-20T14:02:38;3.28;;;0.55;;
49460;SDS011;35355;49.198;-0.368;2023-07-20T14:05:04;2.58;;;0.47;;
49460;SDS011;35355;49.198;-0.368;2023-07-20T14:07:30;2.60;;;0.55;;
49460;SDS011;35355;49.198;-0.368;2023-07-20T14:09:55;2.85;;;0.30;;
49460;SDS011;35355;49.198;-0.368;2023-07-20T14:12:20;2.75;;;0.40;;
49460;SDS011;35355;49.198;-0.368;2023-07-20T14:14:46;0.80;;;0.40;;
49460;SDS011;35355;49.198;-0.368;2023-07-20T14:17:11;2.45;;;0.47;;
49460;SDS011;35355;49.198;-0.368;2023-07-20T14:19:37;0.65;;;0.30;;
49460;SDS011;35355;49.198;-0.368;2023-07-20T14:22:03;1.60;;;0.40;;
49460;SDS011;35355;49.198;-0.368;2023-07-20T14:24:28;3.13;;;0.50;;
49460;SDS011;35355;49.198;-0.368;2023-07-20T14:26:54;3.80;;;0.68;;
49460;SDS011;35355;49.198;-0.368;2023-07-20T14:29:21;3.95;;;0.38;;
49460;SDS011;35355;49.198;-0.368;2023-07-20T14:31:46;5.68;;;0.65;;
49460;SDS011;35355;49.198;-0.368;2023-07-20T14:34:18;3.45;;;0.65;;
49460;SDS011;35355;49.198;-0.368;2023-07-20T14:36:44;4.78;;;0.43;;
49460;SDS011;35355;49.198;-0.368;2023-07-20T14:39:10;2.83;;;0.60;;
49460;SDS011;35355;49.198;-0.368;2023-07-20T14:41:36;3.05;;;0.60;;
49460;SDS011;35355;49.198;-0.368;2023-07-20T14:44:02;3.47;;;0.70;;
49460;SDS011;35355;49.198;-0.368;2023-07-20T14:46:27;2.80;;;0.93;;
49460;SDS011;35355;49.198;-0.368;2023-07-20T14:48:52;4.28;;;0.50;;
49460;SDS011;35355;49.198;-0.368;2023-07-20T14:51:18;4.38;;;0.95;;
49460;SDS011;35355;49.198;-0.368;2023-07-20T14:53:43;4.70;;;0.70;;
49460;SDS011;35355;49.198;-0.368;2023-07-20T14:56:09;3.67;;;0.40;;
49460;SDS011;35355;49.198;-0.368;2023-07-20T14:58:35;5.05;;;0.75;;